Terminal Aerodrome Forecast
Issued by NWS

Home | Current Version | Previous Version | Text Only | Print | Product List | Glossary On
Versions: 1 2 3 4 5 6 7 8 9 10 11 12 13 14
000
FTUS45 KRIW 220500
TAFRKS
TAF
KRKS 220532Z 2206/2306 VRB06KT P6SM VCSH SCT100 BKN150
      TEMPO 2206/2208 VRB20G30KT
     FM220800 VRB05KT P6SM FEW150
     FM221800 24007KT P6SM FEW150
     FM230300 09010KT P6SM SKC=

USA.gov is the U.S. government's official web portal to all federal, state and local government web resources and services.